Terminal Aerodrome Forecast
Issued by NWS Dallas/Fort Worth, TX

Current Version | Previous Version | Text Only | Print | Product List | Glossary On
Versions: 1 2 3 4 5 6 7 8 9 10 11 12 13 14 15 16 17 18 19 20 21 22 23 24 25 26 27 28 29 30 31 32
000
FTUS44 KFWD 181100
TAFACT
TAF
KACT 181123Z 1812/1912 08004KT 2SM BR OVC003
     FM181700 06005KT 5SM BR OVC007
     FM190000 04007KT P6SM SCT007 OVC011
     FM190300 03007KT 5SM BR OVC006=

USA.gov is the U.S. government's official web portal to all federal, state and local government web resources and services.